createdAt,value
2023-03-02T04:47:39.954Z,570.17
2023-03-02T04:50:07.731Z,564.78
2023-03-02T04:52:34.524Z,563.65
2023-03-02T04:55:01.209Z,561.33
2023-03-02T04:57:27.889Z,554.45
2023-03-02T04:59:54.524Z,563.35
2023-03-02T05:02:21.242Z,559.70
2023-03-02T05:04:47.987Z,566.97
2023-03-02T05:07:14.648Z,553.38
2023-03-02T05:09:41.323Z,561.13
2023-03-02T05:12:08.007Z,565.10
2023-03-02T05:14:34.691Z,565.05
2023-03-02T05:17:01.316Z,554.40
2023-03-02T05:19:28.164Z,550.55
2023-03-02T05:21:56.315Z,550.67
2023-03-02T05:24:22.949Z,551.45
2023-03-02T05:26:49.598Z,547.13
2023-03-02T05:29:16.238Z,536.60
2023-03-02T05:31:44.954Z,554.05
2023-03-02T05:34:14.193Z,546.70
2023-03-02T05:36:40.863Z,546.40
2023-03-02T05:39:08.281Z,547.13
2023-03-02T05:41:36.135Z,551.92
2023-03-02T05:44:03.489Z,555.42
2023-03-02T05:46:30.236Z,552.75
2023-03-02T05:48:56.916Z,554.80
2023-03-02T05:51:23.655Z,558.67
2023-03-02T05:53:50.243Z,561.50
2023-03-02T05:56:17.048Z,573.40
2023-03-02T05:58:43.683Z,559.90
2023-03-02T06:01:13.652Z,574.08
2023-03-02T06:03:42.226Z,568.10
2023-03-02T06:06:08.862Z,565.42
2023-03-02T06:08:40.874Z,568.25
2023-03-02T06:11:08.219Z,573.80
2023-03-02T06:13:35.021Z,560.80
2023-03-02T06:16:01.950Z,563.88
2023-03-02T06:18:28.714Z,561.50
2023-03-02T06:20:55.417Z,561.20
2023-03-02T06:23:22.416Z,556.25
2023-03-02T06:25:49.278Z,558.70
2023-03-02T06:28:18.803Z,558.40
2023-03-02T06:30:48.622Z,555.17
2023-03-02T06:33:20.023Z,566.55
2023-03-02T06:35:47.042Z,560.20
2023-03-02T06:38:13.894Z,552.22
2023-03-02T06:40:40.588Z,565.85
2023-03-02T06:43:07.354Z,563.47
2023-03-02T06:45:34.210Z,570.08
2023-03-02T06:48:01.812Z,565.37
2023-03-02T06:50:28.699Z,579.83
2023-03-02T06:52:55.552Z,563.38
2023-03-02T06:55:22.358Z,565.13
2023-03-02T06:57:49.130Z,570.95
2023-03-02T07:00:25.873Z,577.83
2023-03-02T07:02:53.042Z,583.33
2023-03-02T07:05:20.018Z,576.67
2023-03-02T07:07:47.062Z,577.28
2023-03-02T07:10:13.848Z,637.05
2023-03-02T07:12:41.818Z,590.83
2023-03-02T07:15:11.171Z,588.27
2023-03-02T07:17:39.256Z,584.33
2023-03-02T07:20:07.038Z,595.17
2023-03-02T07:22:33.744Z,574.08
2023-03-02T07:25:00.435Z,574.92
2023-03-02T07:27:27.109Z,583.58
2023-03-02T07:29:53.847Z,590.85
2023-03-02T07:32:20.567Z,590.35
2023-03-02T07:34:47.360Z,591.47
2023-03-02T07:37:13.984Z,593.38
2023-03-02T07:39:40.644Z,590.72
2023-03-02T07:42:08.907Z,593.85
2023-03-02T07:44:35.587Z,577.63
2023-03-02T07:47:02.279Z,599.33
2023-03-02T07:49:28.973Z,593.72
2023-03-02T07:51:55.645Z,603.70
2023-03-02T07:54:22.480Z,602.17
2023-03-02T07:56:49.132Z,604.05
2023-03-02T07:59:15.764Z,596.67
2023-03-02T08:01:42.530Z,602.88
2023-03-02T08:04:09.571Z,609.38
2023-03-02T08:06:36.309Z,605.03
2023-03-02T08:09:04.193Z,602.10
2023-03-02T08:11:31.121Z,598.80
2023-03-02T08:14:02.545Z,607.47
2023-03-02T08:16:30.110Z,602.53
2023-03-02T08:18:59.627Z,599.63
2023-03-02T08:21:27.494Z,609.65
2023-03-02T08:23:54.348Z,608.15
2023-03-02T08:26:21.196Z,607.15
2023-03-02T08:28:48.096Z,606.13
2023-03-02T08:31:15.273Z,610.67
2023-03-02T08:33:42.015Z,603.58
2023-03-02T08:36:15.485Z,606.83
2023-03-02T08:38:42.259Z,604.90
2023-03-02T08:41:12.818Z,611.80
2023-03-02T08:43:39.928Z,606.03
2023-03-02T08:46:07.023Z,614.67
2023-03-02T08:48:34.011Z,613.60
2023-03-02T08:51:07.959Z,613.72
2023-03-02T08:53:41.235Z,607.92
2023-03-02T08:56:26.585Z,612.90
2023-03-02T08:58:54.904Z,614.67
2023-03-02T09:01:29.711Z,612.85
2023-03-02T09:03:59.261Z,612.05
2023-03-02T09:06:27.230Z,610.22
2023-03-02T09:08:54.053Z,612.22
2023-03-02T09:11:20.820Z,605.50
2023-03-02T09:13:48.071Z,615.97
2023-03-02T09:16:15.622Z,618.22
2023-03-02T09:18:42.355Z,617.80
2023-03-02T09:21:10.650Z,612.38
2023-03-02T09:23:37.333Z,611.47
2023-03-02T09:26:05.014Z,618.23
2023-03-02T09:28:32.257Z,615.80
2023-03-02T09:31:03.264Z,617.60
2023-03-02T09:33:31.702Z,624.90
2023-03-02T09:35:58.633Z,624.67
2023-03-02T09:38:25.377Z,617.72
2023-03-02T09:41:04.897Z,620.13
2023-03-02T09:43:55.554Z,626.38
2023-03-02T09:46:51.600Z,612.58
2023-03-02T09:49:33.277Z,624.87
2023-03-02T09:52:33.250Z,621.83
2023-03-02T09:55:36.456Z,626.53
2023-03-02T09:58:08.428Z,621.03
2023-03-02T10:00:38.172Z,626.97
2023-03-02T10:03:16.625Z,620.05
2023-03-02T10:05:49.638Z,613.47
2023-03-02T10:08:20.700Z,614.40
2023-03-02T10:11:14.873Z,618.92
2023-03-02T10:13:58.038Z,626.10
2023-03-02T10:16:45.698Z,628.00
2023-03-02T10:19:55.510Z,627.88
2023-03-02T10:22:33.409Z,642.05
2023-03-02T10:25:35.099Z,626.43
2023-03-02T10:28:21.540Z,633.53
2023-03-02T10:31:05.439Z,633.55
2023-03-02T10:33:33.612Z,640.10
2023-03-02T10:36:01.152Z,632.27
2023-03-02T10:38:29.268Z,624.25
2023-03-02T10:41:02.315Z,631.95
2023-03-02T10:43:47.619Z,643.53
2023-03-02T10:46:14.687Z,642.25
2023-03-02T10:48:49.267Z,635.55
2023-03-02T10:51:31.101Z,632.20
2023-03-02T10:54:05.847Z,635.97
2023-03-02T10:56:33.671Z,632.05
2023-03-02T10:59:03.391Z,632.07
2023-03-02T11:01:31.327Z,631.72
2023-03-02T11:04:00.121Z,633.40
2023-03-02T11:06:28.792Z,642.75
2023-03-02T11:09:08.144Z,635.33
2023-03-02T11:11:35.244Z,633.38
2023-03-02T11:14:28.499Z,639.10
2023-03-02T11:16:55.175Z,645.28
2023-03-02T11:19:39.256Z,640.25
2023-03-02T11:22:45.237Z,641.83
2023-03-02T11:25:39.649Z,644.90
2023-03-02T11:28:29.368Z,651.45
2023-03-02T11:30:58.372Z,652.65
2023-03-02T11:33:56.189Z,649.50
2023-03-02T11:36:35.497Z,657.08
2023-03-02T11:39:05.466Z,649.95
2023-03-02T11:41:35.505Z,644.55
2023-03-02T11:44:14.763Z,648.53
2023-03-02T11:46:46.914Z,643.92
2023-03-02T11:49:20.011Z,643.92
2023-03-02T11:51:58.834Z,641.90
2023-03-02T11:54:43.469Z,632.25
2023-03-02T11:57:22.402Z,631.42
2023-03-02T11:59:50.334Z,628.25
2023-03-02T12:02:17.921Z,634.22
2023-03-02T12:04:44.695Z,625.55
2023-03-02T12:07:22.915Z,632.53
2023-03-02T12:10:00.628Z,629.33
2023-03-02T12:12:40.887Z,632.60
2023-03-02T12:15:35.946Z,632.17
2023-03-02T12:18:02.918Z,638.13
2023-03-02T12:20:30.119Z,637.55
2023-03-02T12:23:21.315Z,637.03
2023-03-02T12:25:51.392Z,654.83
2023-03-02T12:28:30.888Z,654.45
2023-03-02T12:31:11.080Z,649.13
2023-03-02T12:33:47.704Z,646.00
2023-03-02T12:36:27.038Z,647.75
2023-03-02T12:39:02.543Z,647.22
2023-03-02T12:41:54.544Z,646.65
2023-03-02T12:44:38.634Z,650.50
2023-03-02T12:47:14.593Z,656.70
2023-03-02T12:50:00.196Z,659.80
2023-03-02T12:52:32.581Z,653.70
2023-03-02T12:55:00.476Z,658.80
2023-03-02T12:57:27.145Z,645.92
2023-03-02T12:59:56.707Z,651.72
2023-03-02T13:02:26.635Z,642.33
2023-03-02T13:05:07.970Z,633.03
2023-03-02T13:07:41.973Z,630.88
2023-03-02T13:10:21.722Z,627.10
2023-03-02T13:12:48.501Z,634.38
2023-03-02T13:15:17.135Z,633.17
2023-03-02T13:17:45.227Z,642.00
2023-03-02T13:20:14.397Z,642.30
2023-03-02T13:22:41.259Z,651.70
2023-03-02T13:25:18.791Z,645.13
2023-03-02T13:27:53.100Z,656.55
2023-03-02T13:30:31.481Z,662.45
2023-03-02T13:33:23.216Z,664.30
2023-03-02T13:35:50.116Z,663.13
2023-03-02T13:38:22.633Z,661.13
2023-03-02T13:40:52.213Z,668.13
2023-03-02T13:43:35.753Z,666.40
2023-03-02T13:46:05.857Z,667.47
2023-03-02T13:48:33.227Z,669.03
2023-03-02T13:51:02.914Z,679.13
2023-03-02T13:53:31.537Z,672.00
2023-03-02T13:56:00.218Z,670.30
2023-03-02T13:58:29.273Z,673.78
2023-03-02T14:00:56.091Z,664.13
2023-03-02T14:03:22.827Z,670.35
2023-03-02T14:05:49.770Z,671.45
2023-03-02T14:08:16.432Z,668.30
2023-03-02T14:10:43.353Z,664.47
2023-03-02T14:13:16.096Z,667.47
2023-03-02T14:15:48.152Z,659.50
2023-03-02T14:18:29.513Z,650.50
2023-03-02T14:20:56.851Z,640.95
2023-03-02T14:23:25.440Z,647.53
2023-03-02T14:25:53.986Z,650.30
2023-03-02T14:28:31.218Z,645.95
2023-03-02T14:30:58.586Z,651.80
2023-03-02T14:33:25.739Z,653.72
2023-03-02T14:35:55.993Z,665.67
2023-03-02T14:38:25.183Z,651.00
2023-03-02T14:40:51.915Z,645.35
2023-03-02T14:43:18.818Z,641.42
2023-03-02T14:45:45.531Z,642.53
2023-03-02T14:48:12.425Z,643.63
2023-03-02T14:50:42.705Z,644.00
2023-03-02T14:53:18.560Z,643.00
2023-03-02T14:55:45.466Z,650.50
2023-03-02T14:58:18.310Z,642.58
2023-03-02T15:00:45.733Z,644.70
2023-03-02T15:03:20.281Z,648.22
2023-03-02T15:06:00.203Z,642.10
2023-03-02T15:08:27.114Z,633.88
2023-03-02T15:10:53.720Z,619.20
2023-03-02T15:13:20.336Z,619.67
2023-03-02T15:15:47.098Z,614.53
2023-03-02T15:18:16.895Z,611.23
2023-03-02T15:20:43.506Z,606.58
2023-03-02T15:23:10.086Z,602.47
2023-03-02T15:25:36.741Z,602.92
2023-03-02T15:28:04.001Z,599.33
2023-03-02T15:30:30.834Z,606.00
2023-03-02T15:32:59.419Z,606.22
2023-03-02T15:35:27.548Z,611.63
2023-03-02T15:37:55.572Z,619.70
2023-03-02T15:40:22.173Z,609.03
2023-03-02T15:42:49.034Z,611.63
2023-03-02T15:45:15.771Z,610.10
2023-03-02T15:47:42.409Z,605.45
2023-03-02T15:50:10.012Z,599.67
2023-03-02T15:52:36.727Z,597.75
2023-03-02T15:55:03.943Z,602.58
2023-03-02T15:57:30.538Z,610.35
2023-03-02T15:59:57.345Z,611.57
2023-03-02T16:02:24.008Z,611.50
2023-03-02T16:04:50.684Z,623.60
2023-03-02T16:07:17.364Z,617.53
2023-03-02T16:09:45.215Z,621.47
2023-03-02T16:12:11.997Z,614.85
2023-03-02T16:14:38.758Z,635.30
2023-03-02T16:17:05.413Z,636.40
2023-03-02T16:19:32.304Z,638.47
2023-03-02T16:21:59.014Z,641.00
2023-03-02T16:24:25.680Z,637.58
2023-03-02T16:26:53.618Z,636.20
2023-03-02T16:29:20.317Z,635.33
2023-03-02T16:31:47.531Z,627.53
2023-03-02T16:34:14.668Z,628.58
2023-03-02T16:36:41.484Z,619.25
2023-03-02T16:39:09.725Z,624.80
2023-03-02T16:41:38.150Z,622.25
2023-03-02T16:44:05.358Z,618.83
2023-03-02T16:46:37.340Z,614.13
2023-03-02T16:49:05.239Z,621.80
2023-03-02T16:51:32.372Z,619.20
2023-03-02T16:53:59.229Z,624.55
2023-03-02T16:56:26.275Z,617.97
2023-03-02T16:58:52.918Z,618.00
2023-03-02T17:01:21.279Z,620.58
2023-03-02T17:03:51.980Z,619.55
2023-03-02T17:06:20.856Z,617.08
2023-03-02T17:08:47.689Z,627.00
2023-03-02T17:11:14.342Z,624.42
2023-03-02T17:13:41.149Z,623.78
2023-03-02T17:16:07.977Z,627.20
2023-03-02T17:18:34.840Z,622.25
2023-03-02T17:21:01.652Z,627.55
2023-03-02T17:23:28.807Z,615.75
2023-03-02T17:25:56.001Z,626.47
2023-03-02T17:28:23.658Z,625.58
2023-03-02T17:30:50.426Z,628.30
2023-03-02T17:33:18.183Z,618.40
2023-03-02T17:35:46.052Z,623.92
2023-03-02T17:38:12.808Z,611.53
2023-03-02T17:40:39.522Z,611.00
2023-03-02T17:43:06.206Z,605.80
2023-03-02T17:45:32.799Z,611.45
2023-03-02T17:47:59.721Z,600.55
2023-03-02T17:50:30.898Z,601.30
2023-03-02T17:52:58.130Z,601.95
2023-03-02T17:55:24.785Z,589.13
2023-03-02T17:57:51.519Z,594.95
2023-03-02T18:00:20.575Z,593.15
2023-03-02T18:02:47.738Z,590.28
2023-03-02T18:05:14.398Z,580.40
2023-03-02T18:07:41.052Z,595.05
2023-03-02T18:10:07.990Z,578.03
2023-03-02T18:12:35.398Z,575.05
2023-03-02T18:15:02.299Z,568.00
2023-03-02T18:17:29.243Z,573.45
2023-03-02T18:19:56.082Z,576.65
2023-03-02T18:22:22.685Z,573.63
2023-03-02T18:24:50.498Z,580.35
2023-03-02T18:27:17.788Z,593.55
2023-03-02T18:29:44.637Z,598.80
2023-03-02T18:32:14.420Z,605.92
2023-03-02T18:34:41.370Z,608.93
2023-03-02T18:37:08.113Z,606.45
2023-03-02T18:39:35.069Z,608.35
2023-03-02T18:42:01.670Z,611.90
2023-03-02T18:44:31.044Z,607.25
2023-03-02T18:46:57.894Z,616.30
2023-03-02T18:49:25.584Z,620.55
2023-03-02T18:51:52.936Z,613.05
2023-03-02T18:54:19.643Z,617.28
2023-03-02T18:56:46.300Z,610.78
2023-03-02T18:59:13.256Z,599.20
2023-03-02T19:01:39.998Z,609.25
2023-03-02T19:04:06.760Z,603.35
2023-03-02T19:06:34.024Z,610.28
2023-03-02T19:09:00.746Z,596.25
2023-03-02T19:11:27.873Z,603.35
2023-03-02T19:13:56.403Z,604.42
2023-03-02T19:16:23.055Z,603.42
2023-03-02T19:18:50.085Z,607.70
2023-03-02T19:21:17.491Z,598.92
2023-03-02T19:23:45.669Z,607.35
2023-03-02T19:26:13.560Z,604.55
2023-03-02T19:28:40.170Z,601.13
2023-03-02T19:31:09.265Z,610.38
2023-03-02T19:33:36.399Z,608.63
2023-03-02T19:36:04.051Z,602.00
2023-03-02T19:38:30.899Z,605.15
2023-03-02T19:40:59.989Z,611.85
2023-03-02T19:43:27.769Z,610.78
2023-03-02T19:45:54.732Z,609.03
2023-03-02T19:48:21.412Z,610.78
2023-03-02T19:50:48.370Z,612.13
2023-03-02T19:53:17.060Z,620.10
2023-03-02T19:55:44.221Z,612.65
2023-03-02T19:58:16.957Z,626.65
2023-03-02T20:00:44.700Z,619.92
2023-03-02T20:03:11.970Z,622.30
2023-03-02T20:05:39.363Z,617.42
2023-03-02T20:08:07.543Z,624.95
2023-03-02T20:10:40.221Z,614.35
2023-03-02T20:13:08.008Z,618.63
2023-03-02T20:15:38.111Z,621.03
2023-03-02T20:18:07.335Z,615.65
2023-03-02T20:20:34.240Z,621.80
2023-03-02T20:23:00.951Z,614.17
2023-03-02T20:25:28.508Z,615.08
2023-03-02T20:27:56.291Z,616.95
2023-03-02T20:30:31.408Z,613.80
2023-03-02T20:32:59.443Z,622.20
2023-03-02T20:35:27.433Z,618.00
2023-03-02T20:37:56.585Z,618.83
2023-03-02T20:40:25.030Z,614.85
2023-03-02T20:42:52.391Z,620.45
2023-03-02T20:45:19.582Z,620.15
2023-03-02T20:47:46.802Z,606.88
2023-03-02T20:50:16.877Z,611.50
2023-03-02T20:52:43.949Z,614.45
2023-03-02T20:55:11.660Z,620.35
2023-03-02T20:57:38.969Z,614.90
2023-03-02T21:00:09.270Z,611.15
2023-03-02T21:02:35.917Z,618.38
2023-03-02T21:05:02.589Z,615.83
2023-03-02T21:07:29.303Z,622.25
2023-03-02T21:09:56.054Z,620.70
2023-03-02T21:12:23.012Z,617.38
2023-03-02T21:14:49.842Z,615.78
2023-03-02T21:17:16.422Z,610.97
2023-03-02T21:19:43.061Z,613.42
2023-03-02T21:22:09.656Z,619.13
2023-03-02T21:24:36.388Z,607.28
2023-03-02T21:27:03.230Z,606.22
2023-03-02T21:29:29.915Z,601.10
2023-03-02T21:31:56.960Z,597.70
2023-03-02T21:34:23.632Z,604.03
2023-03-02T21:36:53.642Z,600.63
2023-03-02T21:39:23.470Z,603.60
2023-03-02T21:41:51.003Z,601.35
2023-03-02T21:44:17.996Z,603.35
2023-03-02T21:46:45.541Z,601.25
2023-03-02T21:49:19.711Z,597.05
2023-03-02T21:51:48.890Z,605.38
2023-03-02T21:54:16.477Z,603.60
2023-03-02T21:56:43.566Z,604.83
2023-03-02T21:59:11.233Z,600.33
2023-03-02T22:01:37.854Z,590.10
2023-03-02T22:04:04.997Z,607.83
2023-03-02T22:06:32.845Z,604.55
2023-03-02T22:09:01.319Z,604.87
2023-03-02T22:11:36.765Z,602.30
2023-03-02T22:14:12.260Z,606.45
2023-03-02T22:16:41.408Z,601.33
2023-03-02T22:19:23.779Z,600.33
2023-03-02T22:21:50.673Z,608.15
2023-03-02T22:24:21.836Z,597.55
2023-03-02T22:27:15.061Z,598.80
2023-03-02T22:29:45.913Z,596.33
2023-03-02T22:32:20.078Z,596.40
2023-03-02T22:34:48.307Z,599.67
2023-03-02T22:37:20.589Z,592.25
2023-03-02T22:39:48.770Z,596.03
2023-03-02T22:42:21.406Z,596.10
2023-03-02T22:45:12.860Z,586.33
2023-03-02T22:47:39.554Z,596.35
2023-03-02T22:50:22.830Z,599.47
2023-03-02T22:52:50.186Z,593.75
2023-03-02T22:55:35.471Z,600.45
2023-03-02T22:58:39.623Z,589.17
2023-03-02T23:01:21.619Z,591.85
2023-03-02T23:03:51.676Z,593.83
2023-03-02T23:06:32.663Z,589.25
2023-03-02T23:09:06.121Z,590.33
2023-03-02T23:11:42.592Z,589.97
2023-03-02T23:14:24.484Z,578.90
2023-03-02T23:17:01.576Z,578.40
2023-03-02T23:19:30.475Z,602.63
2023-03-02T23:21:58.038Z,601.10
2023-03-02T23:24:24.991Z,600.42
2023-03-02T23:26:52.720Z,605.20
2023-03-02T23:29:20.260Z,599.83
2023-03-02T23:31:47.796Z,601.08
2023-03-02T23:34:15.198Z,598.67
2023-03-02T23:36:42.071Z,599.88
2023-03-02T23:39:09.624Z,597.75
2023-03-02T23:41:37.263Z,594.88
2023-03-02T23:44:04.754Z,606.45
2023-03-02T23:46:31.927Z,603.53
2023-03-02T23:48:58.660Z,603.15
2023-03-02T23:51:26.111Z,601.33
2023-03-02T23:53:53.948Z,595.35
2023-03-02T23:56:21.262Z,601.78
2023-03-02T23:58:48.134Z,599.72
